Time;durP1;ratioP1;P1;durP2;ratioP2;P2;SDS_P1;SDS_P2;PMS_P1;PMS_P2;Temp;Humidity;BMP_temperature;BMP_pressure;BME280_temperature;BME280_humidity;BME280_pressure;Samples;Min_cycle;Max_cycle;Signal;HPM_P1;HPM_P2
2023/05/30 00:02:04;;;;;;;15.98;4.22;;;;;;;;;;4992886;28;98859;-77
2023/05/30 00:04:30;;;;;;;9.43;3.25;;;;;;;;;;4991030;28;99912;-77
2023/05/30 00:06:57;;;;;;;14.43;3.72;;;;;;;;;;4989782;28;100286;-76
2023/05/30 00:09:24;;;;;;;10.68;3.60;;;;;;;;;;4993850;28;98229;-77
2023/05/30 00:11:54;;;;;;;28.40;4.70;;;;;;;;;;4994707;28;99745;-76
2023/05/30 00:14:21;;;;;;;28.58;6.40;;;;;;;;;;4996984;28;99891;-76
2023/05/30 00:16:47;;;;;;;26.05;4.20;;;;;;;;;;5001199;28;98318;-76
2023/05/30 00:19:14;;;;;;;19.13;3.83;;;;;;;;;;4990565;28;98671;-79
2023/05/30 00:21:40;;;;;;;10.88;3.72;;;;;;;;;;4995867;28;98359;-76
2023/05/30 00:24:07;;;;;;;12.27;4.93;;;;;;;;;;4992396;28;99348;-76
2023/05/30 00:26:33;;;;;;;18.42;3.60;;;;;;;;;;4992786;28;100246;-77
2023/05/30 00:29:00;;;;;;;18.08;4.85;;;;;;;;;;4993034;28;98915;-78
2023/05/30 00:31:26;;;;;;;22.25;4.10;;;;;;;;;;4989680;28;99066;-76
2023/05/30 00:33:53;;;;;;;18.35;4.10;;;;;;;;;;4987222;28;100169;-77
2023/05/30 00:36:19;;;;;;;16.35;4.28;;;;;;;;;;4991267;28;98249;-76
2023/05/30 00:38:46;;;;;;;23.33;5.07;;;;;;;;;;4988208;28;100105;-77
2023/05/30 00:41:12;;;;;;;17.08;4.32;;;;;;;;;;4989921;28;98709;-76
2023/05/30 00:43:39;;;;;;;16.60;4.82;;;;;;;;;;4989172;28;100219;-76
2023/05/30 00:46:07;;;;;;;27.17;4.28;;;;;;;;;;4988819;28;98752;-76
2023/05/30 00:48:34;;;;;;;18.70;3.55;;;;;;;;;;4989293;28;98482;-78
2023/05/30 00:51:04;;;;;;;21.33;4.35;;;;;;;;;;4989775;28;98536;-78
2023/05/30 00:53:31;;;;;;;31.35;4.78;;;;;;;;;;4988548;28;98555;-77
2023/05/30 00:55:57;;;;;;;21.10;4.15;;;;;;;;;;4989573;28;100196;-76
2023/05/30 00:58:24;;;;;;;27.17;4.57;;;;;;;;;;4983640;28;99500;-76
2023/05/30 01:00:51;;;;;;;17.30;4.10;;;;;;;;;;4988911;28;98867;-75
2023/05/30 01:03:17;;;;;;;16.00;4.07;;;;;;;;;;4987017;28;101068;-76
2023/05/30 01:05:44;;;;;;;25.95;5.90;;;;;;;;;;4989344;28;99808;-76
2023/05/30 01:08:10;;;;;;;14.10;3.50;;;;;;;;;;4988671;28;98285;-76
2023/05/30 01:10:37;;;;;;;29.55;5.03;;;;;;;;;;4987805;28;101249;-76
2023/05/30 01:13:11;;;;;;;19.67;4.05;;;;;;;;;;4987030;28;101495;-77
2023/05/30 01:15:45;;;;;;;14.03;4.03;;;;;;;;;;4980085;28;98361;-77
2023/05/30 01:18:27;;;;;;;15.23;3.58;;;;;;;;;;4989539;28;98275;-76
2023/05/30 01:21:00;;;;;;;24.85;4.72;;;;;;;;;;4983676;28;100840;-77
2023/05/30 01:23:33;;;;;;;14.80;4.53;;;;;;;;;;4986773;28;100791;-76
2023/05/30 01:26:08;;;;;;;14.50;4.07;;;;;;;;;;4989087;28;98760;-77
2023/05/30 01:28:39;;;;;;;16.63;4.20;;;;;;;;;;4985443;28;98762;-76
2023/05/30 01:31:07;;;;;;;21.88;5.03;;;;;;;;;;4988106;28;98432;-77
2023/05/30 01:33:34;;;;;;;19.92;4.35;;;;;;;;;;4987682;28;98974;-76
2023/05/30 01:36:01;;;;;;;17.17;4.30;;;;;;;;;;4987057;28;98522;-76
2023/05/30 01:38:27;;;;;;;18.38;4.40;;;;;;;;;;4988708;28;98691;-76
2023/05/30 01:40:57;;;;;;;14.80;3.85;;;;;;;;;;4988624;28;100022;-76
2023/05/30 01:43:43;;;;;;;15.23;3.63;;;;;;;;;;4989578;28;98406;-77
2023/05/30 01:46:24;;;;;;;16.45;3.92;;;;;;;;;;4987445;28;101406;-76
2023/05/30 01:49:03;;;;;;;21.75;4.55;;;;;;;;;;4986210;28;98495;-77
2023/05/30 01:51:34;;;;;;;25.52;4.40;;;;;;;;;;4987461;28;99635;-76
2023/05/30 01:54:03;;;;;;;20.23;5.32;;;;;;;;;;4987323;28;100094;-76
2023/05/30 01:56:30;;;;;;;13.63;4.43;;;;;;;;;;4986255;28;98288;-77
2023/05/30 01:58:57;;;;;;;20.02;4.53;;;;;;;;;;4986350;28;100913;-76
2023/05/30 02:01:26;;;;;;;21.85;5.95;;;;;;;;;;4986756;28;101624;-75
2023/05/30 02:03:53;;;;;;;18.27;4.63;;;;;;;;;;4988234;28;98797;-76
2023/05/30 02:06:21;;;;;;;18.35;5.03;;;;;;;;;;4990001;28;101451;-77
2023/05/30 02:08:48;;;;;;;18.90;4.28;;;;;;;;;;4987343;28;98374;-77
2023/05/30 02:11:15;;;;;;;13.90;3.85;;;;;;;;;;4986455;28;100234;-77
2023/05/30 02:13:44;;;;;;;16.52;4.97;;;;;;;;;;4988013;28;98720;-76
2023/05/30 02:16:10;;;;;;;16.08;4.35;;;;;;;;;;4988456;28;98205;-76
2023/05/30 02:18:40;;;;;;;15.18;4.40;;;;;;;;;;4984378;28;101055;-77
2023/05/30 02:21:07;;;;;;;14.75;4.35;;;;;;;;;;4986082;28;101750;-77
2023/05/30 02:23:35;;;;;;;14.15;4.65;;;;;;;;;;4986845;28;98162;-77
2023/05/30 02:26:03;;;;;;;16.85;4.32;;;;;;;;;;4987834;28;98314;-77
2023/05/30 02:28:30;;;;;;;18.08;4.15;;;;;;;;;;4989336;28;100696;-76
2023/05/30 02:30:56;;;;;;;20.55;4.50;;;;;;;;;;4986227;28;101140;-77
2023/05/30 02:33:23;;;;;;;21.63;4.45;;;;;;;;;;4985674;28;100266;-76
2023/05/30 02:35:49;;;;;;;14.30;4.65;;;;;;;;;;4986251;28;98297;-76
2023/05/30 02:38:16;;;;;;;12.75;4.05;;;;;;;;;;4986018;28;99451;-77
2023/05/30 02:40:42;;;;;;;17.67;3.83;;;;;;;;;;4987628;28;98906;-76
2023/05/30 02:43:10;;;;;;;16.33;3.67;;;;;;;;;;4985824;28;98312;-77
2023/05/30 02:45:47;;;;;;;17.95;4.47;;;;;;;;;;4985721;28;101188;-75
2023/05/30 02:48:13;;;;;;;9.73;3.90;;;;;;;;;;4989030;28;98959;-77
2023/05/30 02:50:40;;;;;;;12.20;4.30;;;;;;;;;;4985317;28;100545;-76
2023/05/30 02:53:13;;;;;;;22.45;4.70;;;;;;;;;;4977278;28;101336;-77
2023/05/30 02:55:42;;;;;;;11.75;3.72;;;;;;;;;;4986061;28;98331;-77
2023/05/30 02:58:38;;;;;;;13.50;4.10;;;;;;;;;;4986605;28;99237;-77
2023/05/30 03:01:15;;;;;;;19.17;3.97;;;;;;;;;;4986412;28;99266;-77
2023/05/30 03:03:42;;;;;;;21.35;4.43;;;;;;;;;;4986045;28;99057;-76
2023/05/30 03:06:27;;;;;;;11.95;4.20;;;;;;;;;;4985192;28;99494;-77
2023/05/30 03:09:08;;;;;;;21.65;4.53;;;;;;;;;;4984740;28;101228;-77
2023/05/30 03:11:36;;;;;;;11.55;3.63;;;;;;;;;;4989428;28;99759;-76
2023/05/30 03:14:02;;;;;;;11.55;3.72;;;;;;;;;;4984907;28;100327;-76
2023/05/30 03:16:29;;;;;;;19.42;5.20;;;;;;;;;;4985319;28;98714;-77
2023/05/30 03:18:58;;;;;;;11.82;4.07;;;;;;;;;;4970133;28;100330;-75
2023/05/30 03:21:24;;;;;;;12.43;3.88;;;;;;;;;;4985620;28;100399;-75
2023/05/30 03:23:52;;;;;;;13.23;4.63;;;;;;;;;;4985398;28;100735;-76
2023/05/30 03:26:22;;;;;;;13.93;4.28;;;;;;;;;;4985800;28;100843;-77
2023/05/30 03:28:49;;;;;;;11.82;5.35;;;;;;;;;;4986266;28;99451;-77
2023/05/30 03:31:20;;;;;;;10.88;4.13;;;;;;;;;;4986840;28;98994;-77
2023/05/30 03:33:47;;;;;;;11.15;3.83;;;;;;;;;;4986790;28;101348;-76
2023/05/30 03:36:17;;;;;;;13.43;4.43;;;;;;;;;;4987012;28;98579;-77
2023/05/30 03:38:44;;;;;;;17.10;3.65;;;;;;;;;;4986996;28;98334;-76
2023/05/30 03:41:12;;;;;;;15.55;4.68;;;;;;;;;;4984982;28;101428;-76
2023/05/30 03:43:38;;;;;;;15.35;4.95;;;;;;;;;;4985313;28;98248;-76
2023/05/30 03:46:05;;;;;;;13.85;4.25;;;;;;;;;;4987703;28;101256;-76
2023/05/30 03:48:32;;;;;;;14.32;4.03;;;;;;;;;;4993197;28;100892;-76
2023/05/30 03:51:00;;;;;;;11.48;3.47;;;;;;;;;;4991648;28;98266;-77
2023/05/30 03:53:26;;;;;;;10.63;4.15;;;;;;;;;;4985805;28;100983;-75
2023/05/30 03:55:52;;;;;;;16.10;5.07;;;;;;;;;;4989756;28;98959;-75
2023/05/30 03:58:19;;;;;;;9.25;4.18;;;;;;;;;;4984575;28;100925;-75
2023/05/30 04:00:46;;;;;;;20.58;4.15;;;;;;;;;;4984991;28;102222;-77
2023/05/30 04:03:12;;;;;;;8.35;4.10;;;;;;;;;;4985644;28;98654;-77
2023/05/30 04:05:41;;;;;;;17.15;4.68;;;;;;;;;;4985487;28;98662;-76
2023/05/30 04:08:09;;;;;;;16.80;4.80;;;;;;;;;;4989914;28;99914;-76
2023/05/30 04:10:35;;;;;;;15.32;4.18;;;;;;;;;;4989445;28;99456;-76
2023/05/30 04:13:01;;;;;;;10.02;4.13;;;;;;;;;;4988298;28;100522;-77
2023/05/30 04:15:28;;;;;;;12.30;4.00;;;;;;;;;;4984572;28;101452;-75
2023/05/30 04:17:57;;;;;;;15.80;4.70;;;;;;;;;;4990851;28;98253;-76
2023/05/30 04:20:24;;;;;;;10.02;3.92;;;;;;;;;;4988238;28;99989;-76
2023/05/30 04:22:52;;;;;;;22.35;5.10;;;;;;;;;;4989287;28;98238;-76
2023/05/30 04:25:23;;;;;;;11.68;4.35;;;;;;;;;;4988658;28;99900;-76
2023/05/30 04:27:49;;;;;;;8.20;3.67;;;;;;;;;;4972400;28;102162;-75
2023/05/30 04:30:18;;;;;;;11.65;4.13;;;;;;;;;;4987886;28;98403;-77
2023/05/30 04:32:45;;;;;;;10.20;3.83;;;;;;;;;;4987540;28;100862;-77
2023/05/30 04:35:14;;;;;;;12.73;4.10;;;;;;;;;;4985358;28;99557;-76
2023/05/30 04:37:44;;;;;;;9.77;4.47;;;;;;;;;;4988504;28;99083;-76
2023/05/30 04:40:14;;;;;;;12.02;4.10;;;;;;;;;;4991658;28;101465;-76
2023/05/30 04:42:41;;;;;;;9.40;4.38;;;;;;;;;;4987563;28;98366;-76
2023/05/30 04:45:09;;;;;;;10.73;4.68;;;;;;;;;;4987170;28;99350;-77
2023/05/30 04:47:38;;;;;;;8.40;3.67;;;;;;;;;;4988366;28;99780;-76
2023/05/30 04:50:05;;;;;;;12.70;3.85;;;;;;;;;;4988073;28;98234;-77
2023/05/30 04:52:32;;;;;;;10.93;3.80;;;;;;;;;;4987530;28;99671;-77
2023/05/30 04:54:59;;;;;;;14.27;4.72;;;;;;;;;;4987933;28;101601;-76
2023/05/30 04:57:26;;;;;;;18.58;4.93;;;;;;;;;;4989622;28;98241;-77
2023/05/30 04:59:53;;;;;;;9.48;4.10;;;;;;;;;;4990153;28;100956;-76
2023/05/30 05:02:19;;;;;;;16.27;4.28;;;;;;;;;;4989246;28;98221;-76
2023/05/30 05:04:46;;;;;;;7.57;3.88;;;;;;;;;;4989872;28;98519;-76
2023/05/30 05:07:13;;;;;;;16.27;5.15;;;;;;;;;;4988308;28;100089;-76
2023/05/30 05:09:47;;;;;;;10.07;3.95;;;;;;;;;;4989369;28;98127;-76
2023/05/30 05:12:14;;;;;;;14.32;4.07;;;;;;;;;;4985342;28;99576;-75
2023/05/30 05:14:41;;;;;;;11.35;4.32;;;;;;;;;;4985990;28;99879;-76
2023/05/30 05:17:07;;;;;;;9.20;4.13;;;;;;;;;;4988539;28;98380;-77
2023/05/30 05:19:34;;;;;;;14.75;3.78;;;;;;;;;;4980457;28;100053;-76
2023/05/30 05:22:04;;;;;;;10.98;3.78;;;;;;;;;;4992647;28;99165;-76
2023/05/30 05:24:31;;;;;;;8.15;3.78;;;;;;;;;;4988586;28;99491;-77
2023/05/30 05:26:57;;;;;;;19.35;3.72;;;;;;;;;;4988288;28;99919;-76
2023/05/30 05:29:24;;;;;;;6.93;3.08;;;;;;;;;;4988547;28;98210;-77
2023/05/30 05:31:51;;;;;;;12.93;3.63;;;;;;;;;;4988994;28;99487;-77
2023/05/30 05:34:18;;;;;;;7.68;3.67;;;;;;;;;;4986634;28;98882;-76
2023/05/30 05:36:44;;;;;;;11.95;3.30;;;;;;;;;;4988038;28;98329;-77
2023/05/30 05:39:10;;;;;;;15.10;4.03;;;;;;;;;;4989480;28;99329;-78
2023/05/30 05:41:37;;;;;;;11.93;3.40;;;;;;;;;;4986898;28;98909;-77
2023/05/30 05:44:03;;;;;;;9.45;2.90;;;;;;;;;;4990881;28;98325;-77
2023/05/30 05:46:30;;;;;;;11.80;3.33;;;;;;;;;;4987960;28;100115;-76
2023/05/30 05:48:56;;;;;;;15.90;3.35;;;;;;;;;;4988059;28;98652;-77
2023/05/30 05:51:23;;;;;;;9.32;3.38;;;;;;;;;;4989007;28;99697;-76
2023/05/30 05:53:49;;;;;;;5.25;2.35;;;;;;;;;;4989245;28;100092;-77
2023/05/30 05:56:15;;;;;;;11.18;4.32;;;;;;;;;;4992479;28;98550;-76
2023/05/30 05:58:42;;;;;;;18.73;4.00;;;;;;;;;;4989147;28;99665;-76
2023/05/30 06:01:09;;;;;;;12.35;3.45;;;;;;;;;;4986902;28;99067;-78
2023/05/30 06:03:36;;;;;;;11.45;3.53;;;;;;;;;;4985856;28;98491;-76
2023/05/30 06:06:03;;;;;;;9.52;3.53;;;;;;;;;;4987276;28;101433;-77
2023/05/30 06:08:32;;;;;;;12.75;3.40;;;;;;;;;;4985067;28;98629;-76
2023/05/30 06:10:59;;;;;;;9.48;3.35;;;;;;;;;;4986442;28;98647;-78
2023/05/30 06:13:25;;;;;;;12.63;3.15;;;;;;;;;;4986948;28;99889;-77
2023/05/30 06:15:52;;;;;;;14.52;4.25;;;;;;;;;;4987642;28;98455;-76
2023/05/30 06:18:18;;;;;;;22.98;4.65;;;;;;;;;;4986708;28;101795;-80
2023/05/30 06:20:45;;;;;;;12.35;3.70;;;;;;;;;;4988353;28;100158;-76
2023/05/30 06:23:12;;;;;;;16.02;3.60;;;;;;;;;;4986461;28;98871;-77
2023/05/30 06:25:40;;;;;;;4.13;2.65;;;;;;;;;;4985812;28;100713;-76
2023/05/30 06:28:06;;;;;;;18.95;4.10;;;;;;;;;;4982733;28;99861;-77
2023/05/30 06:30:33;;;;;;;13.68;4.50;;;;;;;;;;4986744;28;100275;-77
2023/05/30 06:32:59;;;;;;;8.00;3.22;;;;;;;;;;4984534;28;101461;-76
2023/05/30 06:35:26;;;;;;;16.17;4.05;;;;;;;;;;4983267;28;98659;-76
2023/05/30 06:37:52;;;;;;;17.67;4.50;;;;;;;;;;4986946;28;98533;-77
2023/05/30 06:40:19;;;;;;;18.27;3.97;;;;;;;;;;4979455;28;99947;-77
2023/05/30 06:42:45;;;;;;;10.43;3.72;;;;;;;;;;4981478;28;98345;-77
2023/05/30 06:45:13;;;;;;;13.65;3.53;;;;;;;;;;4980202;28;98636;-75
2023/05/30 06:47:39;;;;;;;12.13;4.00;;;;;;;;;;4977599;28;100242;-77
2023/05/30 06:50:09;;;;;;;14.90;4.15;;;;;;;;;;4989904;28;98137;-76
2023/05/30 06:52:35;;;;;;;15.48;4.05;;;;;;;;;;4982648;28;99304;-77
2023/05/30 06:55:02;;;;;;;12.38;4.43;;;;;;;;;;4981882;28;99159;-77
2023/05/30 06:57:28;;;;;;;11.23;4.05;;;;;;;;;;4976284;28;100225;-76
2023/05/30 06:59:55;;;;;;;11.88;3.50;;;;;;;;;;4982557;28;100131;-78
2023/05/30 07:02:21;;;;;;;11.43;3.70;;;;;;;;;;4975155;28;99684;-78
2023/05/30 07:04:48;;;;;;;16.23;4.15;;;;;;;;;;4980927;28;98657;-77
2023/05/30 07:07:14;;;;;;;13.70;4.70;;;;;;;;;;4985106;28;99959;-78
2023/05/30 07:09:41;;;;;;;12.68;3.55;;;;;;;;;;4981365;28;99351;-77
2023/05/30 07:12:09;;;;;;;18.20;4.97;;;;;;;;;;4983202;28;100120;-77
2023/05/30 07:14:36;;;;;;;11.90;3.92;;;;;;;;;;4983768;28;99730;-76
2023/05/30 07:17:04;;;;;;;13.93;4.10;;;;;;;;;;4977875;28;99665;-76
2023/05/30 07:19:31;;;;;;;33.78;6.78;;;;;;;;;;4978953;28;98889;-77
2023/05/30 07:21:58;;;;;;;9.90;4.10;;;;;;;;;;4976006;28;98243;-76
2023/05/30 07:24:24;;;;;;;11.00;3.90;;;;;;;;;;4982767;28;101089;-76
2023/05/30 07:26:53;;;;;;;12.02;3.83;;;;;;;;;;4974014;28;100215;-77
2023/05/30 07:29:20;;;;;;;18.05;4.25;;;;;;;;;;4983851;28;98405;-77
2023/05/30 07:31:49;;;;;;;9.23;3.72;;;;;;;;;;4986893;28;98765;-77
2023/05/30 07:34:16;;;;;;;10.27;3.97;;;;;;;;;;4980122;28;98682;-77
2023/05/30 07:36:42;;;;;;;15.75;3.75;;;;;;;;;;4975562;28;99429;-77
2023/05/30 07:39:08;;;;;;;10.68;4.43;;;;;;;;;;4980001;28;98999;-78
2023/05/30 07:41:35;;;;;;;9.50;3.83;;;;;;;;;;4980157;28;101053;-77
2023/05/30 07:44:01;;;;;;;12.13;4.03;;;;;;;;;;4988949;28;99769;-76
2023/05/30 07:46:28;;;;;;;13.80;4.30;;;;;;;;;;4982811;28;99925;-77
2023/05/30 07:48:54;;;;;;;14.23;4.50;;;;;;;;;;4995570;28;99693;-75
2023/05/30 07:51:22;;;;;;;17.70;3.75;;;;;;;;;;4997369;28;99600;-77
2023/05/30 07:53:48;;;;;;;10.48;4.22;;;;;;;;;;4995316;28;100110;-77
2023/05/30 07:56:15;;;;;;;13.10;4.35;;;;;;;;;;4991317;28;98513;-77
2023/05/30 07:58:43;;;;;;;10.57;4.47;;;;;;;;;;4990340;28;100154;-76
2023/05/30 08:01:09;;;;;;;13.68;4.75;;;;;;;;;;4989826;28;98787;-76
2023/05/30 08:03:35;;;;;;;17.90;4.57;;;;;;;;;;4989517;28;99590;-78
2023/05/30 08:06:02;;;;;;;13.73;4.28;;;;;;;;;;4989379;28;99115;-77
2023/05/30 08:08:29;;;;;;;15.68;4.85;;;;;;;;;;4988308;28;98807;-77
2023/05/30 08:10:56;;;;;;;13.38;3.78;;;;;;;;;;4987960;28;98866;-76
2023/05/30 08:13:28;;;;;;;9.77;4.45;;;;;;;;;;4990391;28;100414;-76
2023/05/30 08:15:55;;;;;;;14.82;4.20;;;;;;;;;;4989668;28;98737;-76
2023/05/30 08:18:22;;;;;;;14.02;4.55;;;;;;;;;;4987660;28;100286;-76
2023/05/30 08:20:50;;;;;;;18.10;4.20;;;;;;;;;;4990361;28;98254;-77
2023/05/30 08:23:17;;;;;;;10.38;4.43;;;;;;;;;;4989102;28;98809;-77
2023/05/30 08:25:45;;;;;;;19.35;3.88;;;;;;;;;;4990136;28;99127;-76
2023/05/30 08:28:13;;;;;;;13.45;4.55;;;;;;;;;;4988724;28;98314;-76
2023/05/30 08:30:40;;;;;;;11.98;4.13;;;;;;;;;;4990211;28;99533;-76
2023/05/30 08:33:10;;;;;;;8.73;3.67;;;;;;;;;;4989841;28;100250;-76
2023/05/30 08:35:37;;;;;;;13.02;4.63;;;;;;;;;;4989917;28;100481;-75
2023/05/30 08:38:03;;;;;;;14.07;3.88;;;;;;;;;;4993883;28;99419;-77
2023/05/30 08:40:33;;;;;;;9.55;3.85;;;;;;;;;;4991068;28;98260;-76
2023/05/30 08:43:00;;;;;;;11.95;3.97;;;;;;;;;;4992740;28;99973;-75
2023/05/30 08:45:27;;;;;;;17.80;4.75;;;;;;;;;;4999846;28;99682;-76
2023/05/30 08:47:59;;;;;;;10.88;4.20;;;;;;;;;;4995844;28;98069;-78
2023/05/30 08:50:26;;;;;;;11.35;4.32;;;;;;;;;;4987793;28;98445;-77
2023/05/30 08:52:53;;;;;;;11.05;4.20;;;;;;;;;;4988487;28;99736;-77
2023/05/30 08:55:42;;;;;;;15.73;4.53;;;;;;;;;;4989439;28;98361;-77
2023/05/30 08:58:12;;;;;;;9.57;3.88;;;;;;;;;;4980371;28;98827;-77
2023/05/30 09:00:38;;;;;;;11.98;4.07;;;;;;;;;;4983796;28;98300;-78
2023/05/30 09:03:05;;;;;;;11.70;4.13;;;;;;;;;;4989645;28;99969;-76
2023/05/30 09:05:36;;;;;;;10.07;4.07;;;;;;;;;;4988236;28;100308;-78
2023/05/30 09:08:02;;;;;;;11.93;4.07;;;;;;;;;;4987370;28;98258;-77
2023/05/30 09:10:30;;;;;;;9.45;3.75;;;;;;;;;;4988635;28;99502;-78
2023/05/30 09:13:00;;;;;;;12.02;3.95;;;;;;;;;;4987616;28;99864;-77
2023/05/30 09:15:26;;;;;;;13.38;3.53;;;;;;;;;;4988937;28;98744;-77
2023/05/30 09:17:53;;;;;;;10.68;4.25;;;;;;;;;;4988568;28;98764;-77
2023/05/30 09:20:20;;;;;;;15.00;4.57;;;;;;;;;;4990829;28;99238;-78
2023/05/30 09:22:46;;;;;;;11.73;3.67;;;;;;;;;;4986844;28;99405;-77
2023/05/30 09:25:15;;;;;;;7.80;3.97;;;;;;;;;;4988899;28;100183;-78
2023/05/30 09:27:46;;;;;;;15.52;4.70;;;;;;;;;;4988738;28;98273;-77
2023/05/30 09:30:13;;;;;;;11.82;4.07;;;;;;;;;;4989374;28;99399;-78
2023/05/30 09:32:40;;;;;;;11.27;4.57;;;;;;;;;;4988006;28;99151;-77
2023/05/30 09:35:07;;;;;;;11.88;4.93;;;;;;;;;;4989943;28;98230;-77
2023/05/30 09:37:43;;;;;;;16.45;4.70;;;;;;;;;;4989768;28;99070;-77
2023/05/30 09:40:17;;;;;;;11.40;3.85;;;;;;;;;;4992565;28;100007;-77
2023/05/30 09:42:45;;;;;;;9.25;3.53;;;;;;;;;;5004983;28;99477;-77
2023/05/30 09:45:15;;;;;;;14.45;4.75;;;;;;;;;;4999253;28;99189;-77
2023/05/30 09:47:42;;;;;;;14.32;4.22;;;;;;;;;;4988589;28;98667;-77
2023/05/30 09:50:09;;;;;;;14.32;4.40;;;;;;;;;;4989465;28;99470;-78
2023/05/30 09:52:36;;;;;;;8.98;3.85;;;;;;;;;;4987204;28;99942;-77
2023/05/30 09:55:05;;;;;;;13.90;5.00;;;;;;;;;;4987647;28;98288;-78
2023/05/30 09:57:35;;;;;;;9.18;3.95;;;;;;;;;;4988029;28;98800;-77
2023/05/30 10:00:09;;;;;;;15.82;4.45;;;;;;;;;;4987618;28;99892;-76
2023/05/30 10:02:36;;;;;;;6.97;3.58;;;;;;;;;;4988051;28;98852;-77
2023/05/30 10:05:03;;;;;;;11.07;3.50;;;;;;;;;;4986730;28;99361;-77
2023/05/30 10:07:31;;;;;;;11.45;4.40;;;;;;;;;;4987600;28;98816;-76
2023/05/30 10:09:58;;;;;;;11.55;3.53;;;;;;;;;;4985243;28;99550;-76
2023/05/30 10:12:24;;;;;;;14.10;4.57;;;;;;;;;;4981575;28;100096;-76
2023/05/30 10:14:51;;;;;;;13.23;4.20;;;;;;;;;;4986145;28;98267;-77
2023/05/30 10:17:18;;;;;;;22.02;4.30;;;;;;;;;;4980690;28;100030;-79
2023/05/30 10:19:50;;;;;;;10.82;3.75;;;;;;;;;;4981970;28;99784;-78
2023/05/30 10:22:19;;;;;;;8.63;3.92;;;;;;;;;;4971825;28;99150;-78
2023/05/30 10:24:47;;;;;;;9.27;3.70;;;;;;;;;;4978512;28;99267;-76
2023/05/30 10:27:17;;;;;;;13.05;3.70;;;;;;;;;;4987125;28;98967;-79
2023/05/30 10:29:49;;;;;;;8.27;3.35;;;;;;;;;;4979900;28;100015;-77
2023/05/30 10:32:18;;;;;;;9.80;3.43;;;;;;;;;;4974955;28;100386;-77
2023/05/30 10:34:53;;;;;;;10.30;4.60;;;;;;;;;;4976430;28;99321;-78
2023/05/30 10:37:20;;;;;;;8.60;4.07;;;;;;;;;;4978697;28;99576;-78
2023/05/30 10:40:06;;;;;;;10.20;3.95;;;;;;;;;;4983016;28;99336;-78
2023/05/30 10:42:53;;;;;;;8.95;3.40;;;;;;;;;;4979835;28;98269;-79
2023/05/30 10:45:22;;;;;;;8.85;3.97;;;;;;;;;;4986992;28;99388;-77
2023/05/30 10:47:56;;;;;;;10.48;3.75;;;;;;;;;;4986135;28;99928;-78
2023/05/30 10:50:26;;;;;;;14.23;3.88;;;;;;;;;;4981157;28;99611;-77
2023/05/30 10:52:54;;;;;;;8.65;3.55;;;;;;;;;;4978505;28;100096;-79
2023/05/30 10:55:21;;;;;;;7.25;4.03;;;;;;;;;;4974979;28;98414;-78
2023/05/30 10:57:47;;;;;;;7.93;3.28;;;;;;;;;;4970606;28;98851;-77
2023/05/30 11:00:19;;;;;;;8.15;3.53;;;;;;;;;;4972238;28;100419;-78
2023/05/30 11:02:49;;;;;;;6.90;3.20;;;;;;;;;;4979794;28;98210;-76
2023/05/30 11:05:18;;;;;;;6.22;3.20;;;;;;;;;;4986778;28;99432;-79
2023/05/30 11:07:44;;;;;;;5.35;3.08;;;;;;;;;;4979622;28;102316;-79
2023/05/30 11:10:12;;;;;;;5.72;3.03;;;;;;;;;;4990542;28;98947;-78
2023/05/30 11:12:45;;;;;;;5.72;2.63;;;;;;;;;;4977246;28;100135;-79
2023/05/30 11:15:16;;;;;;;9.43;3.28;;;;;;;;;;4986839;28;98332;-79
2023/05/30 11:17:43;;;;;;;6.78;3.22;;;;;;;;;;4984662;28;99393;-80
2023/05/30 11:20:16;;;;;;;5.32;2.97;;;;;;;;;;4981596;28;98834;-80
2023/05/30 11:23:01;;;;;;;5.05;3.20;;;;;;;;;;4978422;28;98425;-79
2023/05/30 11:25:29;;;;;;;8.82;3.40;;;;;;;;;;4975348;28;98605;-75
2023/05/30 11:28:12;;;;;;;5.45;2.70;;;;;;;;;;4981255;28;99373;-77
2023/05/30 11:30:43;;;;;;;4.53;2.83;;;;;;;;;;4981942;28;98882;-77
2023/05/30 11:33:11;;;;;;;4.15;3.05;;;;;;;;;;4989469;28;101092;-77
2023/05/30 11:35:38;;;;;;;4.60;2.50;;;;;;;;;;4992054;28;98370;-76
2023/05/30 11:38:06;;;;;;;3.85;2.83;;;;;;;;;;4989506;28;100069;-76
2023/05/30 11:40:32;;;;;;;4.28;2.38;;;;;;;;;;4997979;28;99944;-77
2023/05/30 11:42:59;;;;;;;4.95;3.08;;;;;;;;;;4987162;28;98325;-77
2023/05/30 11:45:26;;;;;;;7.60;3.53;;;;;;;;;;4987303;28;99658;-78
2023/05/30 11:47:53;;;;;;;4.53;2.80;;;;;;;;;;4985494;28;100375;-78
2023/05/30 11:50:20;;;;;;;3.55;2.65;;;;;;;;;;4985850;28;98316;-77
2023/05/30 11:52:46;;;;;;;4.28;2.70;;;;;;;;;;4986499;28;98695;-76
2023/05/30 11:55:13;;;;;;;3.95;3.00;;;;;;;;;;4989430;28;99300;-77
2023/05/30 11:57:39;;;;;;;7.82;3.28;;;;;;;;;;4986833;28;99527;-77
2023/05/30 12:00:08;;;;;;;6.50;3.20;;;;;;;;;;4986804;28;99972;-76
2023/05/30 12:02:38;;;;;;;3.67;2.88;;;;;;;;;;4984099;28;98018;-78
2023/05/30 12:05:05;;;;;;;2.58;2.38;;;;;;;;;;4987010;28;99583;-78
2023/05/30 12:07:32;;;;;;;3.15;2.80;;;;;;;;;;4986146;28;99939;-77
2023/05/30 12:09:58;;;;;;;7.57;3.10;;;;;;;;;;4987004;28;98192;-77
2023/05/30 12:12:26;;;;;;;4.25;2.45;;;;;;;;;;4985780;28;100073;-77
2023/05/30 12:14:56;;;;;;;8.32;2.85;;;;;;;;;;4986064;28;99008;-76
2023/05/30 12:17:25;;;;;;;3.97;2.58;;;;;;;;;;4990145;28;98174;-77
2023/05/30 12:19:56;;;;;;;2.47;2.28;;;;;;;;;;4985198;28;99904;-80
2023/05/30 12:22:23;;;;;;;8.85;2.85;;;;;;;;;;4976454;28;100060;-77
2023/05/30 12:24:50;;;;;;;2.92;2.72;;;;;;;;;;4982240;28;99959;-76
2023/05/30 12:27:21;;;;;;;3.78;2.90;;;;;;;;;;4977460;28;99241;-76
2023/05/30 12:29:48;;;;;;;3.22;2.85;;;;;;;;;;4975710;28;98700;-76
2023/05/30 12:32:21;;;;;;;3.53;2.67;;;;;;;;;;4982014;28;98502;-76
2023/05/30 12:34:53;;;;;;;5.75;3.17;;;;;;;;;;4975030;28;99928;-77
2023/05/30 12:37:20;;;;;;;3.42;2.35;;;;;;;;;;4982153;28;98369;-77
2023/05/30 12:39:47;;;;;;;2.58;2.42;;;;;;;;;;4987601;28;99269;-77
2023/05/30 12:42:13;;;;;;;13.85;2.85;;;;;;;;;;4983906;28;98309;-76
2023/05/30 12:44:44;;;;;;;2.50;2.30;;;;;;;;;;4985558;28;101708;-78
2023/05/30 12:47:11;;;;;;;5.57;2.90;;;;;;;;;;4982905;28;100394;-78
2023/05/30 12:49:37;;;;;;;6.45;3.03;;;;;;;;;;4983255;28;100178;-74
2023/05/30 12:52:04;;;;;;;3.22;2.60;;;;;;;;;;4989202;28;98362;-75
2023/05/30 12:54:33;;;;;;;5.25;2.63;;;;;;;;;;4979300;28;99737;-75
2023/05/30 12:57:01;;;;;;;2.35;2.08;;;;;;;;;;4982177;28;98604;-77
2023/05/30 12:59:29;;;;;;;2.72;2.53;;;;;;;;;;4989160;28;99291;-79
2023/05/30 13:01:55;;;;;;;5.20;2.55;;;;;;;;;;4988609;28;99005;-77
2023/05/30 13:04:22;;;;;;;2.67;2.50;;;;;;;;;;4985086;28;99713;-78
2023/05/30 13:06:48;;;;;;;9.70;2.65;;;;;;;;;;4986487;28;99079;-78
2023/05/30 13:09:15;;;;;;;4.65;2.80;;;;;;;;;;4976862;28;98360;-78
2023/05/30 13:11:41;;;;;;;3.67;3.38;;;;;;;;;;4978711;28;99698;-78
2023/05/30 13:14:08;;;;;;;5.53;2.83;;;;;;;;;;4982290;28;98925;-78
2023/05/30 13:16:35;;;;;;;5.88;3.05;;;;;;;;;;4988360;28;99436;-78
2023/05/30 13:19:05;;;;;;;2.97;2.78;;;;;;;;;;4975230;28;99649;-79
2023/05/30 13:21:32;;;;;;;3.40;3.10;;;;;;;;;;4994068;28;100127;-78
2023/05/30 13:23:58;;;;;;;3.42;2.85;;;;;;;;;;4983620;28;100320;-78
2023/05/30 13:26:25;;;;;;;4.70;2.85;;;;;;;;;;4994634;28;100234;-79
2023/05/30 13:28:51;;;;;;;4.90;2.95;;;;;;;;;;4992071;28;98241;-78
2023/05/30 13:31:18;;;;;;;3.45;3.25;;;;;;;;;;4982572;28;101299;-79
2023/05/30 13:33:44;;;;;;;4.60;3.20;;;;;;;;;;4980541;28;99923;-76
2023/05/30 13:36:11;;;;;;;4.78;3.13;;;;;;;;;;4980298;28;99596;-77
2023/05/30 13:38:39;;;;;;;5.03;3.10;;;;;;;;;;4980306;28;99712;-78
2023/05/30 13:41:05;;;;;;;5.75;3.15;;;;;;;;;;4986313;28;99958;-77
2023/05/30 13:43:32;;;;;;;5.35;3.10;;;;;;;;;;4990944;28;99729;-77
2023/05/30 13:45:59;;;;;;;2.20;2.10;;;;;;;;;;4985192;28;100221;-77
2023/05/30 13:48:28;;;;;;;3.35;3.05;;;;;;;;;;4979914;28;98391;-77
2023/05/30 13:50:55;;;;;;;3.05;2.50;;;;;;;;;;4984470;28;99937;-78
2023/05/30 13:53:22;;;;;;;2.70;2.50;;;;;;;;;;4979514;28;100307;-78
2023/05/30 13:56:00;;;;;;;6.95;3.22;;;;;;;;;;4986880;28;98916;-79
2023/05/30 13:58:26;;;;;;;2.65;2.45;;;;;;;;;;4984661;28;99649;-77
2023/05/30 14:00:53;;;;;;;5.00;3.10;;;;;;;;;;4984627;28;99817;-79
2023/05/30 14:03:20;;;;;;;3.28;2.92;;;;;;;;;;4985444;28;99238;-79
2023/05/30 14:05:46;;;;;;;3.50;3.20;;;;;;;;;;4985823;28;98494;-78
2023/05/30 14:08:13;;;;;;;3.50;3.00;;;;;;;;;;4984952;28;98262;-79
2023/05/30 14:10:39;;;;;;;3.53;2.97;;;;;;;;;;4985171;28;99611;-78
2023/05/30 14:13:12;;;;;;;3.20;3.00;;;;;;;;;;4987979;28;100370;-79
2023/05/30 14:15:38;;;;;;;5.03;3.35;;;;;;;;;;4983532;28;98879;-79
2023/05/30 14:18:05;;;;;;;3.85;3.17;;;;;;;;;;4981467;28;99321;-77
2023/05/30 14:20:32;;;;;;;2.50;2.30;;;;;;;;;;4981991;28;99046;-76
2023/05/30 14:22:58;;;;;;;3.53;3.00;;;;;;;;;;4999245;28;98148;-78
2023/05/30 14:25:24;;;;;;;3.55;2.65;;;;;;;;;;5004533;28;98130;-78
2023/05/30 14:27:51;;;;;;;4.00;2.80;;;;;;;;;;4991234;28;100057;-78
2023/05/30 14:30:18;;;;;;;5.65;3.50;;;;;;;;;;4987770;28;98533;-78
2023/05/30 14:32:44;;;;;;;2.63;2.50;;;;;;;;;;4976863;28;100143;-78
2023/05/30 14:35:14;;;;;;;2.45;2.25;;;;;;;;;;4982021;28;98482;-77
2023/05/30 14:37:40;;;;;;;2.65;2.45;;;;;;;;;;4987623;28;99494;-78